Time;durP1;ratioP1;P1;durP2;ratioP2;P2;SDS_P1;SDS_P2;PMS_P1;PMS_P2;Temp;Humidity;BMP_temperature;BMP_pressure;BME280_temperature;BME280_humidity;BME280_pressure;Samples;Min_cycle;Max_cycle;Signal;HPM_P1;HPM_P2
2021/06/07 00:02:12;;;;;;;15.50;7.70;;;;;;;;;;5074723;28;20036;-63
2021/06/07 00:04:37;;;;;;;11.38;7.40;;;;;;;;;;5076032;28;20020;-63
2021/06/07 00:07:05;;;;;;;14.88;8.15;;;;;;;;;;5075724;28;20394;-63
2021/06/07 00:09:30;;;;;;;12.68;8.07;;;;;;;;;;5075402;28;20024;-63
2021/06/07 00:11:57;;;;;;;15.95;8.25;;;;;;;;;;5075670;28;20020;-63
2021/06/07 00:14:26;;;;;;;11.02;7.30;;;;;;;;;;5075892;28;20052;-63
2021/06/07 00:16:52;;;;;;;13.65;7.13;;;;;;;;;;5075796;28;20029;-63
2021/06/07 00:19:18;;;;;;;11.55;6.95;;;;;;;;;;5075302;28;20127;-62
2021/06/07 00:21:44;;;;;;;13.00;7.40;;;;;;;;;;5074944;28;20040;-63
2021/06/07 00:24:10;;;;;;;11.77;7.13;;;;;;;;;;5057616;28;20021;-63
2021/06/07 00:26:35;;;;;;;15.90;7.05;;;;;;;;;;5075626;28;20021;-63
2021/06/07 00:29:01;;;;;;;11.95;7.30;;;;;;;;;;5075473;28;20181;-63
2021/06/07 00:31:26;;;;;;;10.30;6.90;;;;;;;;;;5075408;28;20017;-63
2021/06/07 00:33:52;;;;;;;13.90;7.50;;;;;;;;;;5075493;28;20016;-63
2021/06/07 00:36:21;;;;;;;15.13;6.50;;;;;;;;;;5075152;28;20028;-63
2021/06/07 00:38:47;;;;;;;10.82;6.75;;;;;;;;;;5058019;28;20098;-63
2021/06/07 00:41:13;;;;;;;12.88;7.65;;;;;;;;;;5074664;28;20052;-63
2021/06/07 00:43:38;;;;;;;9.23;6.20;;;;;;;;;;5075179;28;20020;-63
2021/06/07 00:46:04;;;;;;;10.27;6.30;;;;;;;;;;5075139;28;20495;-63
2021/06/07 00:48:30;;;;;;;10.55;7.15;;;;;;;;;;5074917;28;20147;-63
2021/06/07 00:50:57;;;;;;;15.95;8.70;;;;;;;;;;5056379;28;20488;-63
2021/06/07 00:53:23;;;;;;;11.63;7.97;;;;;;;;;;5056847;28;20021;-63
2021/06/07 00:55:51;;;;;;;15.52;8.40;;;;;;;;;;5075098;28;20031;-63
2021/06/07 00:58:18;;;;;;;15.90;8.60;;;;;;;;;;5075017;28;20031;-63
2021/06/07 01:00:43;;;;;;;12.88;8.20;;;;;;;;;;5074741;28;20804;-63
2021/06/07 01:03:10;;;;;;;10.93;7.70;;;;;;;;;;5075556;28;20107;-63
2021/06/07 01:05:36;;;;;;;21.70;7.95;;;;;;;;;;5074497;28;20086;-63
2021/06/07 01:08:02;;;;;;;19.08;8.23;;;;;;;;;;5074628;28;20017;-63
2021/06/07 01:10:28;;;;;;;14.90;8.52;;;;;;;;;;5074826;28;20024;-63
2021/06/07 01:12:53;;;;;;;16.33;7.55;;;;;;;;;;5073554;28;20095;-63
2021/06/07 01:15:19;;;;;;;14.07;7.28;;;;;;;;;;5074555;28;20023;-63
2021/06/07 01:17:45;;;;;;;11.07;7.88;;;;;;;;;;5074408;28;20009;-63
2021/06/07 01:20:12;;;;;;;14.20;8.50;;;;;;;;;;5074325;28;20492;-63
2021/06/07 01:22:38;;;;;;;10.98;7.10;;;;;;;;;;5073953;28;20016;-63
2021/06/07 01:25:07;;;;;;;14.07;8.27;;;;;;;;;;5074504;28;20016;-63
2021/06/07 01:27:32;;;;;;;12.50;8.32;;;;;;;;;;5074214;28;20031;-63
2021/06/07 01:29:58;;;;;;;12.85;8.60;;;;;;;;;;5073963;28;20024;-63
2021/06/07 01:32:23;;;;;;;14.93;8.57;;;;;;;;;;5074465;28;20484;-63
2021/06/07 01:34:49;;;;;;;14.27;7.97;;;;;;;;;;5074252;28;20016;-63
2021/06/07 01:37:15;;;;;;;10.63;7.55;;;;;;;;;;5074160;28;20025;-62
2021/06/07 01:39:40;;;;;;;10.93;7.55;;;;;;;;;;5073696;28;20162;-63
2021/06/07 01:42:06;;;;;;;16.92;8.05;;;;;;;;;;5074101;28;20025;-63
2021/06/07 01:44:32;;;;;;;12.77;7.78;;;;;;;;;;5074057;28;20017;-63
2021/06/07 01:46:57;;;;;;;14.13;7.93;;;;;;;;;;5073953;28;20358;-63
2021/06/07 01:49:23;;;;;;;13.10;8.00;;;;;;;;;;5073609;28;20017;-63
2021/06/07 01:51:48;;;;;;;14.10;8.35;;;;;;;;;;5073287;28;20051;-63
2021/06/07 01:54:14;;;;;;;20.95;9.25;;;;;;;;;;5073984;28;20027;-63
2021/06/07 01:56:40;;;;;;;14.07;8.27;;;;;;;;;;5073950;28;20119;-63
2021/06/07 01:59:06;;;;;;;15.52;8.82;;;;;;;;;;5074225;28;20048;-62
2021/06/07 02:01:31;;;;;;;14.88;7.78;;;;;;;;;;5073586;28;20409;-63
2021/06/07 02:03:57;;;;;;;11.68;8.07;;;;;;;;;;5073493;28;20020;-63
2021/06/07 02:06:24;;;;;;;15.02;8.98;;;;;;;;;;5055492;28;20480;-63
2021/06/07 02:08:51;;;;;;;16.25;8.75;;;;;;;;;;5073652;28;20071;-63
2021/06/07 02:11:25;;;;;;;15.43;9.23;;;;;;;;;;5073205;28;20017;-62
2021/06/07 02:13:52;;;;;;;19.35;9.70;;;;;;;;;;5073489;28;20039;-63
2021/06/07 02:16:18;;;;;;;15.82;9.80;;;;;;;;;;5073279;28;20021;-63
2021/06/07 02:18:44;;;;;;;14.63;9.85;;;;;;;;;;5073558;28;20082;-63
2021/06/07 02:21:10;;;;;;;16.90;9.50;;;;;;;;;;5072321;28;20481;-63
2021/06/07 02:23:36;;;;;;;18.35;9.73;;;;;;;;;;5073190;28;20025;-63
2021/06/07 02:26:02;;;;;;;15.52;9.43;;;;;;;;;;5073209;28;20052;-63
2021/06/07 02:28:27;;;;;;;14.68;8.75;;;;;;;;;;5073201;28;20106;-63
2021/06/07 02:30:53;;;;;;;15.73;8.88;;;;;;;;;;5073016;28;20052;-63
2021/06/07 02:33:18;;;;;;;15.88;9.35;;;;;;;;;;5073096;28;20031;-62
2021/06/07 02:35:44;;;;;;;15.15;8.80;;;;;;;;;;5073106;28;20481;-63
2021/06/07 02:38:10;;;;;;;15.77;9.73;;;;;;;;;;5073048;28;20115;-63
2021/06/07 02:40:37;;;;;;;20.83;9.45;;;;;;;;;;5072831;28;20434;-63
2021/06/07 02:43:03;;;;;;;13.93;8.57;;;;;;;;;;5072964;28;20455;-63
2021/06/07 02:45:29;;;;;;;12.85;8.10;;;;;;;;;;5050520;28;20116;-63
2021/06/07 02:47:56;;;;;;;12.68;7.38;;;;;;;;;;5071992;28;20021;-63
2021/06/07 02:50:23;;;;;;;13.50;9.15;;;;;;;;;;5073017;28;20028;-63
2021/06/07 02:52:49;;;;;;;14.20;9.15;;;;;;;;;;5072296;28;20048;-63
2021/06/07 02:55:16;;;;;;;13.15;8.57;;;;;;;;;;5072738;28;20045;-63
2021/06/07 02:57:42;;;;;;;11.02;7.93;;;;;;;;;;5072892;28;20027;-63
2021/06/07 03:00:09;;;;;;;13.80;8.43;;;;;;;;;;5072933;28;20099;-63
2021/06/07 03:02:34;;;;;;;11.25;8.50;;;;;;;;;;5072787;28;20025;-63
2021/06/07 03:05:00;;;;;;;12.98;8.10;;;;;;;;;;5046314;28;20020;-63
2021/06/07 03:07:26;;;;;;;11.30;7.82;;;;;;;;;;5072391;28;20031;-63
2021/06/07 03:09:52;;;;;;;16.40;8.32;;;;;;;;;;5072614;28;20516;-63
2021/06/07 03:12:17;;;;;;;10.73;7.55;;;;;;;;;;5072604;28;20013;-63
2021/06/07 03:14:43;;;;;;;12.52;8.43;;;;;;;;;;5072777;28;20023;-63
2021/06/07 03:17:09;;;;;;;11.20;7.97;;;;;;;;;;5072540;28;20025;-63
2021/06/07 03:19:35;;;;;;;13.52;8.75;;;;;;;;;;5072386;28;20591;-63
2021/06/07 03:22:00;;;;;;;13.90;8.73;;;;;;;;;;5072056;28;20028;-63
2021/06/07 03:24:25;;;;;;;16.73;8.98;;;;;;;;;;5072612;28;20020;-62
2021/06/07 03:26:51;;;;;;;14.55;9.05;;;;;;;;;;5072257;28;20024;-63
2021/06/07 03:29:16;;;;;;;12.07;8.50;;;;;;;;;;5072204;28;20020;-63
2021/06/07 03:31:42;;;;;;;17.92;9.60;;;;;;;;;;5072432;28;20020;-63
2021/06/07 03:34:07;;;;;;;16.85;9.52;;;;;;;;;;5072396;28;20537;-63
2021/06/07 03:36:33;;;;;;;14.13;8.48;;;;;;;;;;5074114;28;20032;-63
2021/06/07 03:38:59;;;;;;;9.68;7.93;;;;;;;;;;5076321;28;20025;-63
2021/06/07 03:41:24;;;;;;;10.70;7.70;;;;;;;;;;5075798;28;20059;-63
2021/06/07 03:43:50;;;;;;;13.18;8.68;;;;;;;;;;5076427;28;20070;-62
2021/06/07 03:46:15;;;;;;;13.05;8.38;;;;;;;;;;5076370;28;20040;-62
2021/06/07 03:48:40;;;;;;;14.43;8.98;;;;;;;;;;5076107;28;20063;-63
2021/06/07 03:51:06;;;;;;;11.02;7.85;;;;;;;;;;5075332;28;20021;-63
2021/06/07 03:53:31;;;;;;;11.20;8.07;;;;;;;;;;5076101;28;20023;-63
2021/06/07 03:55:57;;;;;;;14.85;8.55;;;;;;;;;;5076022;28;20107;-63
2021/06/07 03:58:23;;;;;;;13.15;8.50;;;;;;;;;;5075950;28;20502;-63
2021/06/07 04:00:49;;;;;;;11.88;7.80;;;;;;;;;;5075826;28;20059;-63
2021/06/07 04:03:14;;;;;;;10.65;7.78;;;;;;;;;;5075818;28;20477;-63
2021/06/07 04:05:40;;;;;;;9.82;7.68;;;;;;;;;;5075750;28;20017;-62
2021/06/07 04:08:07;;;;;;;13.48;7.95;;;;;;;;;;5057924;28;20012;-63
2021/06/07 04:10:32;;;;;;;10.52;7.90;;;;;;;;;;5075785;28;20464;-62
2021/06/07 04:12:58;;;;;;;11.05;7.55;;;;;;;;;;5075975;28;20035;-62
2021/06/07 04:15:25;;;;;;;10.50;7.13;;;;;;;;;;5076449;28;20469;-62
2021/06/07 04:17:52;;;;;;;10.50;7.40;;;;;;;;;;5076064;28;20028;-63
2021/06/07 04:20:19;;;;;;;10.52;7.00;;;;;;;;;;5075321;28;20020;-62
2021/06/07 04:22:45;;;;;;;18.00;8.63;;;;;;;;;;5075150;28;20025;-63
2021/06/07 04:25:11;;;;;;;10.52;7.18;;;;;;;;;;5075311;28;20491;-62
2021/06/07 04:27:38;;;;;;;10.43;6.57;;;;;;;;;;5053464;28;20035;-62
2021/06/07 04:30:08;;;;;;;10.20;6.53;;;;;;;;;;5055723;28;20028;-62
2021/06/07 04:32:34;;;;;;;11.30;6.35;;;;;;;;;;5075499;28;20078;-62
2021/06/07 04:35:01;;;;;;;10.73;6.68;;;;;;;;;;5075226;28;20099;-62
2021/06/07 04:37:28;;;;;;;7.97;6.13;;;;;;;;;;5075281;28;20163;-62
2021/06/07 04:39:57;;;;;;;7.38;6.13;;;;;;;;;;5074945;28;20370;-63
2021/06/07 04:42:22;;;;;;;13.77;6.03;;;;;;;;;;5075381;28;20363;-62
2021/06/07 04:44:48;;;;;;;11.15;6.18;;;;;;;;;;5075237;28;20031;-63
2021/06/07 04:47:14;;;;;;;8.30;5.22;;;;;;;;;;5074099;28;20477;-62
2021/06/07 04:49:39;;;;;;;10.05;5.75;;;;;;;;;;5074524;28;20116;-63
2021/06/07 04:52:05;;;;;;;6.88;5.25;;;;;;;;;;5074369;28;20029;-63
2021/06/07 04:54:30;;;;;;;9.95;5.97;;;;;;;;;;5074874;28;20021;-63
2021/06/07 04:56:56;;;;;;;9.75;5.38;;;;;;;;;;5074838;28;20111;-62
2021/06/07 04:59:21;;;;;;;5.78;5.15;;;;;;;;;;5074805;28;20075;-62
2021/06/07 05:01:47;;;;;;;6.20;4.72;;;;;;;;;;5074980;28;20017;-62
2021/06/07 05:04:12;;;;;;;6.15;4.78;;;;;;;;;;5074939;28;20107;-63
2021/06/07 05:06:37;;;;;;;8.20;4.90;;;;;;;;;;5074693;28;20481;-62
2021/06/07 05:09:03;;;;;;;8.05;4.88;;;;;;;;;;5074527;28;20013;-63
2021/06/07 05:11:28;;;;;;;7.00;4.88;;;;;;;;;;5074525;28;20024;-62
2021/06/07 05:13:54;;;;;;;5.97;5.00;;;;;;;;;;5074587;28;20016;-63
2021/06/07 05:16:20;;;;;;;10.48;4.53;;;;;;;;;;5074367;28;20047;-62
2021/06/07 05:18:45;;;;;;;7.28;4.70;;;;;;;;;;5074729;28;20021;-63
2021/06/07 05:21:11;;;;;;;6.28;3.95;;;;;;;;;;5073404;28;20017;-62
2021/06/07 05:23:36;;;;;;;9.93;4.70;;;;;;;;;;5074299;28;20032;-63
2021/06/07 05:26:02;;;;;;;10.32;5.15;;;;;;;;;;5074004;28;20087;-63
2021/06/07 05:28:28;;;;;;;10.30;5.13;;;;;;;;;;5074544;28;20233;-63
2021/06/07 05:30:53;;;;;;;5.90;4.50;;;;;;;;;;5074164;28;20020;-63
2021/06/07 05:33:20;;;;;;;6.15;4.63;;;;;;;;;;5074187;28;20021;-63
2021/06/07 05:35:46;;;;;;;7.10;4.90;;;;;;;;;;5056347;28;20071;-63
2021/06/07 05:38:13;;;;;;;7.45;4.40;;;;;;;;;;5073988;28;20027;-63
2021/06/07 05:40:39;;;;;;;8.40;4.80;;;;;;;;;;5073828;28;20404;-62
2021/06/07 05:43:05;;;;;;;6.05;4.32;;;;;;;;;;5073749;28;20017;-62
2021/06/07 05:45:30;;;;;;;6.35;4.22;;;;;;;;;;5073900;28;20024;-63
2021/06/07 05:47:57;;;;;;;7.03;4.20;;;;;;;;;;5073647;28;20522;-63
2021/06/07 05:50:23;;;;;;;5.40;4.40;;;;;;;;;;5056331;28;20036;-62
2021/06/07 05:52:49;;;;;;;7.65;4.18;;;;;;;;;;5073218;28;20030;-63
2021/06/07 05:55:16;;;;;;;13.57;4.68;;;;;;;;;;5072983;28;20016;-63
2021/06/07 05:57:42;;;;;;;5.80;4.20;;;;;;;;;;5073780;28;20029;-63
2021/06/07 06:00:08;;;;;;;6.25;4.38;;;;;;;;;;5073004;28;20016;-63
2021/06/07 06:02:33;;;;;;;4.95;4.05;;;;;;;;;;5073330;28;20021;-63
2021/06/07 06:04:58;;;;;;;10.27;4.85;;;;;;;;;;5073109;28;20025;-62
2021/06/07 06:07:24;;;;;;;5.82;3.80;;;;;;;;;;5068890;28;20461;-65
2021/06/07 06:09:49;;;;;;;4.82;3.92;;;;;;;;;;5063313;28;20025;-66
2021/06/07 06:12:14;;;;;;;6.05;4.60;;;;;;;;;;5069704;28;20473;-67
2021/06/07 06:14:40;;;;;;;7.70;4.20;;;;;;;;;;5056676;28;20118;-67
2021/06/07 06:17:06;;;;;;;11.32;4.07;;;;;;;;;;5069687;28;20029;-70
2021/06/07 06:19:31;;;;;;;10.35;4.55;;;;;;;;;;5069458;28;20025;-69
2021/06/07 06:22:00;;;;;;;8.85;4.60;;;;;;;;;;5066711;28;20020;-71
2021/06/07 06:24:27;;;;;;;10.85;4.53;;;;;;;;;;5052236;28;20027;-69
2021/06/07 06:26:53;;;;;;;8.25;4.53;;;;;;;;;;5053400;28;20025;-68
2021/06/07 06:29:18;;;;;;;9.77;4.53;;;;;;;;;;5069955;28;20083;-68
2021/06/07 06:31:43;;;;;;;26.17;4.80;;;;;;;;;;5070299;28;20020;-75
2021/06/07 06:34:09;;;;;;;8.57;3.47;;;;;;;;;;5070444;28;20020;-72
2021/06/07 06:36:35;;;;;;;8.68;4.03;;;;;;;;;;5070676;28;20028;-73
2021/06/07 06:39:02;;;;;;;11.02;3.90;;;;;;;;;;5056110;28;20098;-65
2021/06/07 06:41:30;;;;;;;6.85;3.58;;;;;;;;;;5066848;28;20119;-76
2021/06/07 06:43:56;;;;;;;7.30;3.65;;;;;;;;;;5069373;28;20067;-65
2021/06/07 06:46:22;;;;;;;7.70;3.55;;;;;;;;;;5068930;28;20048;-63
2021/06/07 06:48:48;;;;;;;8.52;3.85;;;;;;;;;;5070225;28;20504;-63
2021/06/07 06:51:13;;;;;;;7.32;3.80;;;;;;;;;;5074045;28;20021;-63
2021/06/07 06:53:39;;;;;;;6.78;2.75;;;;;;;;;;5070869;28;20024;-62
2021/06/07 06:56:05;;;;;;;5.03;3.47;;;;;;;;;;5087062;28;20435;-62
2021/06/07 06:58:30;;;;;;;8.13;2.97;;;;;;;;;;5070902;28;20024;-63
2021/06/07 07:00:56;;;;;;;7.00;3.15;;;;;;;;;;5060915;28;20024;-64
2021/06/07 07:03:21;;;;;;;5.63;2.97;;;;;;;;;;5071078;28;20013;-64
2021/06/07 07:05:47;;;;;;;6.05;2.97;;;;;;;;;;5070851;28;20103;-64
2021/06/07 07:08:13;;;;;;;7.18;3.40;;;;;;;;;;5070654;28;20013;-64
2021/06/07 07:10:40;;;;;;;3.58;2.60;;;;;;;;;;5080408;28;20027;-69
2021/06/07 07:13:05;;;;;;;6.43;3.03;;;;;;;;;;5070493;28;20028;-69
2021/06/07 07:15:31;;;;;;;7.82;2.83;;;;;;;;;;5068225;28;20033;-65
2021/06/07 07:17:56;;;;;;;7.55;2.72;;;;;;;;;;5069884;28;20028;-66
2021/06/07 07:20:23;;;;;;;7.60;3.13;;;;;;;;;;5069050;28;20036;-64
2021/06/07 07:22:48;;;;;;;6.00;2.90;;;;;;;;;;5069072;28;20016;-65
2021/06/07 07:25:14;;;;;;;7.60;3.25;;;;;;;;;;5069205;28;20392;-64
2021/06/07 07:27:40;;;;;;;7.35;2.72;;;;;;;;;;5070300;28;20028;-64
2021/06/07 07:30:10;;;;;;;5.70;2.60;;;;;;;;;;5069330;28;20016;-64
2021/06/07 07:32:57;;;;;;;9.00;2.92;;;;;;;;;;5058801;28;20020;-64
2021/06/07 07:35:27;;;;;;;9.13;2.53;;;;;;;;;;5069345;28;20021;-65
2021/06/07 07:37:53;;;;;;;5.97;2.50;;;;;;;;;;5069671;28;20398;-65
2021/06/07 07:40:20;;;;;;;11.32;2.42;;;;;;;;;;5069037;28;20510;-65
2021/06/07 07:42:46;;;;;;;3.90;2.85;;;;;;;;;;5053480;28;20547;-64
2021/06/07 07:45:12;;;;;;;5.93;2.58;;;;;;;;;;5068094;28;20074;-64
2021/06/07 07:47:38;;;;;;;11.20;2.67;;;;;;;;;;5055146;28;20064;-63
2021/06/07 07:50:05;;;;;;;5.20;2.50;;;;;;;;;;5076015;28;20025;-64
2021/06/07 07:52:30;;;;;;;4.35;1.98;;;;;;;;;;5068827;28;20044;-64
2021/06/07 07:54:57;;;;;;;6.32;2.38;;;;;;;;;;5067692;28;20060;-66
2021/06/07 07:57:22;;;;;;;3.75;2.25;;;;;;;;;;5070012;28;20012;-66
2021/06/07 07:59:48;;;;;;;13.52;3.03;;;;;;;;;;5070658;28;20028;-66
2021/06/07 08:02:14;;;;;;;5.85;2.45;;;;;;;;;;5074961;28;20350;-66
2021/06/07 08:04:39;;;;;;;2.45;2.08;;;;;;;;;;5068052;28;20031;-66
2021/06/07 08:07:05;;;;;;;9.43;2.85;;;;;;;;;;5066460;28;20052;-68
2021/06/07 08:09:31;;;;;;;9.32;2.95;;;;;;;;;;5068731;28;20339;-68
2021/06/07 08:11:57;;;;;;;3.50;2.20;;;;;;;;;;5069455;28;20017;-67
2021/06/07 08:14:22;;;;;;;5.75;2.28;;;;;;;;;;5050982;28;20607;-68
2021/06/07 08:16:48;;;;;;;4.22;2.92;;;;;;;;;;5070508;28;20083;-67
2021/06/07 08:19:13;;;;;;;5.18;2.40;;;;;;;;;;5067810;28;20103;-67
2021/06/07 08:21:39;;;;;;;3.45;2.08;;;;;;;;;;5067506;28;20576;-67
2021/06/07 08:24:04;;;;;;;4.70;2.30;;;;;;;;;;5072541;28;20025;-66
2021/06/07 08:26:30;;;;;;;4.07;2.13;;;;;;;;;;5073144;28;20029;-68
2021/06/07 08:28:56;;;;;;;6.30;2.17;;;;;;;;;;5071760;28;20032;-66
2021/06/07 08:31:21;;;;;;;6.45;2.40;;;;;;;;;;5072803;28;20023;-67
2021/06/07 08:33:46;;;;;;;6.53;2.40;;;;;;;;;;5072933;28;20032;-67
2021/06/07 08:36:12;;;;;;;2.85;2.10;;;;;;;;;;5080566;28;20032;-64
2021/06/07 08:38:40;;;;;;;4.55;2.60;;;;;;;;;;5071961;28;20035;-66
2021/06/07 08:41:06;;;;;;;20.23;2.60;;;;;;;;;;5073162;28;20052;-66
2021/06/07 08:43:31;;;;;;;129.40;8.48;;;;;;;;;;5072838;28;20039;-66
2021/06/07 08:45:56;;;;;;;15.18;2.45;;;;;;;;;;5073844;28;20420;-69
2021/06/07 08:48:22;;;;;;;9.00;2.38;;;;;;;;;;5073908;28;20078;-68
2021/06/07 08:50:47;;;;;;;53.60;5.88;;;;;;;;;;5072890;28;20023;-68
2021/06/07 08:53:13;;;;;;;4.35;2.20;;;;;;;;;;5072743;28;20470;-68
2021/06/07 08:55:39;;;;;;;8.10;2.42;;;;;;;;;;5074053;28;20079;-68
2021/06/07 08:58:05;;;;;;;38.65;4.38;;;;;;;;;;5074024;28;20358;-68
2021/06/07 09:00:31;;;;;;;20.27;3.05;;;;;;;;;;5073705;28;20027;-68
2021/06/07 09:02:58;;;;;;;27.98;4.60;;;;;;;;;;5073481;28;20020;-67
2021/06/07 09:05:24;;;;;;;6.43;2.33;;;;;;;;;;5071230;28;20020;-67
2021/06/07 09:07:52;;;;;;;8.95;3.13;;;;;;;;;;5070319;28;20028;-70
2021/06/07 09:10:18;;;;;;;3.70;2.40;;;;;;;;;;5050822;28;20631;-67
2021/06/07 09:12:44;;;;;;;28.27;3.80;;;;;;;;;;5069707;28;20055;-68
2021/06/07 09:15:22;;;;;;;7.38;2.70;;;;;;;;;;5073898;28;20020;-68
2021/06/07 09:17:48;;;;;;;5.70;2.50;;;;;;;;;;5073921;28;20039;-66
2021/06/07 09:20:15;;;;;;;7.28;3.13;;;;;;;;;;5073282;28;20013;-69
2021/06/07 09:22:48;;;;;;;5.85;2.40;;;;;;;;;;5071880;28;20084;-68
2021/06/07 09:25:15;;;;;;;7.68;2.67;;;;;;;;;;5073243;28;20099;-71
2021/06/07 09:27:59;;;;;;;15.65;3.35;;;;;;;;;;5073064;28;20027;-72
2021/06/07 09:30:25;;;;;;;3.75;2.42;;;;;;;;;;5072470;28;20017;-71
2021/06/07 09:33:11;;;;;;;9.23;3.03;;;;;;;;;;5073379;28;20020;-71
2021/06/07 09:35:36;;;;;;;5.65;2.55;;;;;;;;;;5048037;28;20732;-67
2021/06/07 09:38:06;;;;;;;2.50;2.20;;;;;;;;;;5068991;28;20099;-68
2021/06/07 09:40:31;;;;;;;7.15;2.55;;;;;;;;;;5073115;28;20055;-67
2021/06/07 09:42:57;;;;;;;3.80;2.20;;;;;;;;;;5073047;28;20457;-69
2021/06/07 09:45:45;;;;;;;5.15;2.08;;;;;;;;;;5073094;28;20046;-68
2021/06/07 09:48:12;;;;;;;18.27;2.85;;;;;;;;;;5073039;28;20028;-70
2021/06/07 09:50:51;;;;;;;7.00;2.30;;;;;;;;;;5071541;28;20024;-69
2021/06/07 09:53:36;;;;;;;4.88;2.45;;;;;;;;;;5072923;28;20016;-70
2021/06/07 09:56:02;;;;;;;9.32;2.55;;;;;;;;;;5034249;28;20028;-69
2021/06/07 09:58:29;;;;;;;2.72;2.30;;;;;;;;;;5070642;28;20059;-70
2021/06/07 10:00:55;;;;;;;5.47;2.28;;;;;;;;;;5054581;28;20016;-70
2021/06/07 10:03:27;;;;;;;6.82;2.28;;;;;;;;;;5072454;28;20374;-70
2021/06/07 10:05:58;;;;;;;6.00;2.67;;;;;;;;;;5072395;28;20100;-72
2021/06/07 10:08:24;;;;;;;8.73;2.40;;;;;;;;;;5076857;28;20034;-69
2021/06/07 10:10:50;;;;;;;6.97;2.85;;;;;;;;;;5078872;28;20080;-71
2021/06/07 10:13:16;;;;;;;5.35;2.50;;;;;;;;;;5061244;28;20107;-71
2021/06/07 10:15:42;;;;;;;4.72;2.80;;;;;;;;;;5055903;28;20047;-69
2021/06/07 10:18:13;;;;;;;6.32;2.83;;;;;;;;;;5072983;28;20020;-70
2021/06/07 10:23:25;;;;;;;4.45;1.90;;;;;;;;;;5073250;28;20100;-70
2021/06/07 10:25:52;;;;;;;2.78;2.17;;;;;;;;;;5046879;28;20391;-69
2021/06/07 10:28:22;;;;;;;6.40;2.20;;;;;;;;;;5067097;28;20024;-66
2021/06/07 10:30:51;;;;;;;4.00;2.38;;;;;;;;;;5049816;28;20024;-64
2021/06/07 10:33:30;;;;;;;4.38;2.50;;;;;;;;;;5063502;28;20106;-66
2021/06/07 10:35:56;;;;;;;5.57;2.53;;;;;;;;;;5066710;28;20017;-66
2021/06/07 10:38:32;;;;;;;3.65;2.00;;;;;;;;;;5070373;28;20099;-66
2021/06/07 10:41:16;;;;;;;8.88;2.30;;;;;;;;;;5069718;28;20390;-66
2021/06/07 10:43:42;;;;;;;7.55;2.22;;;;;;;;;;5070466;28;20483;-65
2021/06/07 10:46:26;;;;;;;4.72;2.40;;;;;;;;;;5052931;28;20056;-65
2021/06/07 10:48:53;;;;;;;3.58;2.15;;;;;;;;;;5067859;28;20016;-64
2021/06/07 10:51:20;;;;;;;5.10;2.22;;;;;;;;;;5048158;28;20469;-64
2021/06/07 10:53:45;;;;;;;4.93;2.17;;;;;;;;;;5071983;28;20078;-65
2021/06/07 10:56:12;;;;;;;3.00;1.90;;;;;;;;;;5053199;28;20029;-64
2021/06/07 10:58:56;;;;;;;4.68;1.98;;;;;;;;;;5068836;28;20024;-65
2021/06/07 11:01:22;;;;;;;4.22;1.95;;;;;;;;;;5068725;28;20044;-65
2021/06/07 11:03:54;;;;;;;4.18;1.63;;;;;;;;;;5071692;28;20507;-65
2021/06/07 11:06:20;;;;;;;3.88;1.85;;;;;;;;;;5050480;28;20058;-65
2021/06/07 11:08:59;;;;;;;3.85;1.90;;;;;;;;;;5070930;28;20013;-65
2021/06/07 11:11:40;;;;;;;4.35;1.85;;;;;;;;;;5069274;28;20032;-65
2021/06/07 11:14:05;;;;;;;9.57;2.60;;;;;;;;;;5069550;28;20013;-64
2021/06/07 11:16:32;;;;;;;7.28;2.15;;;;;;;;;;5071168;28;20024;-66
2021/06/07 11:18:59;;;;;;;6.35;2.00;;;;;;;;;;5068902;28;20090;-65
2021/06/07 11:21:26;;;;;;;9.15;2.22;;;;;;;;;;5048605;28;20034;-66
2021/06/07 11:23:51;;;;;;;14.77;2.45;;;;;;;;;;5071903;28;20366;-64
2021/06/07 11:26:21;;;;;;;5.95;1.90;;;;;;;;;;5071565;28;20074;-65
2021/06/07 11:28:50;;;;;;;4.25;2.13;;;;;;;;;;5070942;28;20017;-64
2021/06/07 11:31:23;;;;;;;2.20;1.80;;;;;;;;;;5071404;28;20021;-65
2021/06/07 11:33:52;;;;;;;13.23;3.08;;;;;;;;;;5071623;28;20021;-65
2021/06/07 11:36:36;;;;;;;7.32;2.03;;;;;;;;;;5071763;28;20051;-65
2021/06/07 11:39:02;;;;;;;6.75;2.88;;;;;;;;;;5071887;28;20073;-64
2021/06/07 11:41:38;;;;;;;8.27;3.03;;;;;;;;;;5069931;28;20048;-65
2021/06/07 11:44:04;;;;;;;9.85;2.33;;;;;;;;;;5071439;28;20021;-65
2021/06/07 11:46:37;;;;;;;7.75;2.67;;;;;;;;;;5063980;28;20044;-65
2021/06/07 11:49:04;;;;;;;6.75;2.22;;;;;;;;;;5061598;28;20025;-65
2021/06/07 11:51:31;;;;;;;6.07;2.30;;;;;;;;;;5069306;28;20477;-64
2021/06/07 11:53:57;;;;;;;6.95;1.83;;;;;;;;;;5070409;28;20036;-64
2021/06/07 11:56:22;;;;;;;3.53;1.90;;;;;;;;;;5069253;28;20033;-64
2021/06/07 11:58:48;;;;;;;2.10;1.88;;;;;;;;;;5073789;28;20032;-65
2021/06/07 12:01:14;;;;;;;7.20;1.80;;;;;;;;;;5071488;28;20111;-63
2021/06/07 12:03:42;;;;;;;2.67;1.80;;;;;;;;;;5073997;28;20016;-64
2021/06/07 12:06:08;;;;;;;5.75;1.80;;;;;;;;;;5074824;28;20493;-64
2021/06/07 12:08:33;;;;;;;4.95;2.25;;;;;;;;;;5075089;28;20052;-64
2021/06/07 12:10:59;;;;;;;3.15;1.80;;;;;;;;;;5074066;28;20028;-67
2021/06/07 12:13:29;;;;;;;2.35;1.77;;;;;;;;;;5075109;28;20025;-66
2021/06/07 12:16:01;;;;;;;4.38;1.98;;;;;;;;;;5075465;28;20481;-66
2021/06/07 12:18:41;;;;;;;4.60;1.95;;;;;;;;;;5074717;28;20021;-66
2021/06/07 12:21:08;;;;;;;5.55;1.75;;;;;;;;;;5073105;28;20021;-67
2021/06/07 12:23:39;;;;;;;7.38;2.58;;;;;;;;;;5075116;28;20086;-64
2021/06/07 12:29:21;;;;;;;2.55;1.75;;;;;;;;;;5056768;28;20027;-64
2021/06/07 12:32:03;;;;;;;5.28;2.20;;;;;;;;;;5072040;28;20004;-64
2021/06/07 12:34:29;;;;;;;2.20;1.83;;;;;;;;;;5071482;28;20012;-66
2021/06/07 12:36:55;;;;;;;2.40;1.63;;;;;;;;;;5074223;28;20016;-67
2021/06/07 12:39:21;;;;;;;4.05;1.95;;;;;;;;;;5074343;28;20013;-67
2021/06/07 12:41:47;;;;;;;5.75;2.20;;;;;;;;;;5072655;28;20025;-68
2021/06/07 12:44:13;;;;;;;3.47;1.92;;;;;;;;;;5074463;28;20017;-66
2021/06/07 12:46:53;;;;;;;2.50;2.00;;;;;;;;;;5074355;28;20043;-68
2021/06/07 12:49:26;;;;;;;3.92;2.30;;;;;;;;;;5073693;28;20187;-68
2021/06/07 12:51:56;;;;;;;7.45;1.90;;;;;;;;;;5073289;28;20028;-67
2021/06/07 12:54:23;;;;;;;7.97;2.17;;;;;;;;;;5073534;28;20016;-67
2021/06/07 12:56:49;;;;;;;5.93;1.92;;;;;;;;;;5072990;28;20040;-67
2021/06/07 12:59:15;;;;;;;4.78;1.90;;;;;;;;;;5073558;28;20055;-68
2021/06/07 13:01:42;;;;;;;2.60;1.73;;;;;;;;;;5073318;28;20048;-67
2021/06/07 13:04:08;;;;;;;2.92;1.55;;;;;;;;;;5073128;28;20016;-68
2021/06/07 13:06:43;;;;;;;2.10;1.80;;;;;;;;;;5073040;28;20012;-67
2021/06/07 13:09:08;;;;;;;4.03;2.20;;;;;;;;;;5070392;28;20020;-66
2021/06/07 13:11:38;;;;;;;4.35;1.70;;;;;;;;;;5072587;28;20020;-66
2021/06/07 13:14:07;;;;;;;7.70;2.40;;;;;;;;;;5041190;28;20036;-67
2021/06/07 13:16:35;;;;;;;4.20;2.58;;;;;;;;;;5053850;28;20021;-66
2021/06/07 13:19:04;;;;;;;4.18;2.33;;;;;;;;;;5053945;28;20642;-68
2021/06/07 13:21:31;;;;;;;11.88;2.25;;;;;;;;;;5072938;28;20440;-69
2021/06/07 13:23:57;;;;;;;4.03;1.80;;;;;;;;;;5073691;28;20074;-73
2021/06/07 13:26:25;;;;;;;3.90;1.92;;;;;;;;;;5073043;28;20017;-68
2021/06/07 13:29:09;;;;;;;5.13;2.10;;;;;;;;;;5073504;28;20588;-67
2021/06/07 13:31:41;;;;;;;4.78;2.03;;;;;;;;;;5054814;28;20025;-71
2021/06/07 13:34:13;;;;;;;7.35;1.88;;;;;;;;;;5071896;28;20012;-68
2021/06/07 13:36:38;;;;;;;2.95;1.90;;;;;;;;;;5055135;28;20029;-69
2021/06/07 13:39:04;;;;;;;2.28;2.03;;;;;;;;;;5072011;28;20044;-69
2021/06/07 13:41:30;;;;;;;2.25;1.75;;;;;;;;;;5071648;28;20090;-68
2021/06/07 13:43:55;;;;;;;4.40;1.70;;;;;;;;;;5072510;28;20489;-68
2021/06/07 13:46:25;;;;;;;2.30;1.88;;;;;;;;;;5072832;28;20436;-67
2021/06/07 13:48:51;;;;;;;3.97;2.10;;;;;;;;;;5072226;28;20123;-67
2021/06/07 13:51:29;;;;;;;18.30;2.75;;;;;;;;;;5072048;28;20027;-66
2021/06/07 13:54:05;;;;;;;5.30;2.13;;;;;;;;;;5051202;28;20035;-67
2021/06/07 13:56:30;;;;;;;27.42;4.53;;;;;;;;;;5072765;28;20146;-65
2021/06/07 13:58:56;;;;;;;7.50;2.60;;;;;;;;;;5072770;28;20119;-69
2021/06/07 14:01:23;;;;;;;16.73;5.55;;;;;;;;;;5073007;28;20025;-66
2021/06/07 14:03:54;;;;;;;7.60;1.95;;;;;;;;;;5072516;28;20466;-67
2021/06/07 14:06:20;;;;;;;5.15;2.17;;;;;;;;;;5064028;28;20461;-67
2021/06/07 14:08:53;;;;;;;2.97;1.90;;;;;;;;;;5065923;28;20134;-66
2021/06/07 14:11:23;;;;;;;3.45;2.00;;;;;;;;;;5071888;28;20022;-68
2021/06/07 14:13:49;;;;;;;11.00;2.90;;;;;;;;;;5050464;28;20389;-67
2021/06/07 14:16:15;;;;;;;25.85;3.67;;;;;;;;;;5072138;28;20028;-66
2021/06/07 14:18:40;;;;;;;4.50;2.25;;;;;;;;;;5071926;28;20024;-67
2021/06/07 14:21:12;;;;;;;2.85;2.13;;;;;;;;;;5071032;28;20040;-66
2021/06/07 14:26:22;;;;;;;7.93;2.17;;;;;;;;;;5072266;28;20499;-65
2021/06/07 14:28:48;;;;;;;6.80;2.63;;;;;;;;;;5071034;28;20115;-65
2021/06/07 14:31:14;;;;;;;2.65;2.05;;;;;;;;;;5071200;28;20020;-66
2021/06/07 14:33:40;;;;;;;3.67;2.15;;;;;;;;;;5071801;28;20021;-62
2021/06/07 14:36:08;;;;;;;10.02;2.97;;;;;;;;;;5071648;28;20070;-71
2021/06/07 14:38:34;;;;;;;3.33;2.40;;;;;;;;;;5072392;28;20078;-63
2021/06/07 14:41:05;;;;;;;3.88;2.25;;;;;;;;;;5071570;28;20041;-63
2021/06/07 14:43:30;;;;;;;5.38;2.17;;;;;;;;;;5052649;28;20108;-63
2021/06/07 14:45:57;;;;;;;5.82;2.30;;;;;;;;;;5052801;28;20045;-63
2021/06/07 14:48:24;;;;;;;2.88;2.20;;;;;;;;;;5051907;28;20020;-63